LFBDLXGB

Guest
Details From LFBD - Bordeaux Merignac
To LXGB - Gibraltar
Flight Number -
Tags decoded
Created
Modified
Stats Distance 586 nm / 1,085 km
Max Altitude 0 ft / 0 m
Waypoints 5
Social Downloads 0
Likes 0
Share VATSIM

Download

Looking for another format? Having issues loading an existing format? Contact us
Advertisement - Login to hide

Notes

Requested: LFBD ENSAC VULPE MARTIN PIMOS LXGB Unmatched points: MARTIN

Route

LFBD ENSAC VULPE PIMOS LXGB

ID Type Via Altitude Latitude Longitude Leg Dist Tot Dist Heading (true) Name
O LFBD APT - 0 ft / 0 m 44.82876˚ -0.71476˚ - 0 nm - Bordeaux Merignac
ENSAC FIX - 0 ft / 0 m 44.20000˚ -0.69028˚ 37 nm 37 nm 178° / 178° -
VULPE FIX - 0 ft / 0 m 37.76122˚ -4.79843˚ 429 nm 466 nm 207° / 204° -
PIMOS FIX - 0 ft / 0 m 36.15027˚ -4.89346˚ 96 nm 563 nm 183° / 183° -
O LXGB APT - 0 ft / 0 m 36.15121˚ -5.34966˚ 22 nm 585 nm 270° / 270° Gibraltar

Altitude Profile

Advertisement - Login to hide

Weather


0- 5 10 15 20 25 30 35+ Temperature / ° C

Clouds and Precipitation
Forecast for 2018-05-25 00:00 UTC. Updated 2 hours ago

Ground ~20,000 ft ~40,000 ft Winds

LFBD

Details ICAO LFBD (BOD)
Name Bordeaux Merignac
Region France
Timezone Europe/Paris (UTC+2.0)
Stats Elevation 166 ft / 51 m (AMSL)
Location 44.828762° -0.714755°
Runways 2
Magnetic Variation 0.011° W

METAR

LFBD 250100Z AUTO 04003KT CAVOK 18/14 Q1015 TEMPO 4500 -SHRA SCT020 BKN070TCU

Decode

TAF

TAF AMD LFBD 250111Z 2501/2606 35005KT CAVOK TEMPO 2501/2509 4500 -SHRA SCT020 BKN070TCU PROB40 TEMPO 2503/2506 34015G25KT 1500 TSRA BKN050CB OVC080 BECMG 2508/2510 04010KT TEMPO 2511/2515 4500 -SHRA BKN040TCU OVC090 PROB30 TEMPO 2511/2513 24015G25KT 1200 -TSRAGR BKN015 OVC025CB OVC100 PROB40 2603/2606 1500 BR OVC003 TX27/2515Z TN17/2506Z

Decode

Departure Runways

ID Width Length Bearing (true) Bearing (mag) Surface Threshold Offset Overrun Length
05 148 ft / 45 m 10,164 ft / 3,098 m 45.48° 45.49° Asphalt 26 ft / 8 m 1,145 ft / 349 m
11 148 ft / 45 m 7,931 ft / 2,417 m 106.45° 106.46° Asphalt 26 ft / 8 m 1,198 ft / 365 m
23 148 ft / 45 m 10,164 ft / 3,098 m 225.50° 225.51° Asphalt 39 ft / 12 m 1,266 ft / 386 m
29 148 ft / 45 m 7,931 ft / 2,417 m 286.47° 286.48° Asphalt 33 ft / 10 m 1,201 ft / 366 m

LXGB

Details ICAO LXGB (GIB)
Name Gibraltar
Region Gibralter
Timezone Europe/Gibraltar (UTC+2.0)
Stats Elevation 15 ft / 5 m (AMSL)
Location 36.151209° -5.349664°
Runways 1
Magnetic Variation 1.072° W

METAR

LXGB 250050Z AUTO 28017KT 9999 // NCD 17/13 Q1013

Decode

TAF

Not found

Destination Runways

ID Width Length Bearing (true) Bearing (mag) Surface Threshold Offset Overrun Length
27 151 ft / 46 m 5,992 ft / 1,826 m 267.56° 268.63° Asphalt 367 ft / 112 m 89 ft / 27 m
9 151 ft / 46 m 5,992 ft / 1,826 m 87.54° 88.61° Asphalt 299 ft / 91 m 52 ft / 16 m

Popular Alternatives